Time;durP1;ratioP1;P1;durP2;ratioP2;P2;SDS_P1;SDS_P2;PMS_P1;PMS_P2;Temp;Humidity;BMP_temperature;BMP_pressure;BME280_temperature;BME280_humidity;BME280_pressure;Samples;Min_cycle;Max_cycle;Signal;HPM_P1;HPM_P2
2021/05/31 00:01:48;;;;;;;93.88;31.08;;;8.70;98.60;;;;;;5110663;28;20046;-67
2021/05/31 00:04:15;;;;;;;44.20;30.73;;;8.60;98.80;;;;;;5110610;28;20061;-67
2021/05/31 00:07:02;;;;;;;88.38;30.63;;;8.60;99.00;;;;;;5110590;28;20071;-67
2021/05/31 00:09:28;;;;;;;79.20;31.52;;;8.70;99.00;;;;;;5110422;28;20058;-67
2021/05/31 00:11:53;;;;;;;84.03;33.35;;;8.70;99.20;;;;;;5110558;28;20044;-67
2021/05/31 00:14:19;;;;;;;88.75;30.77;;;8.70;99.20;;;;;;5110422;28;20692;-67
2021/05/31 00:16:45;;;;;;;184.65;33.53;;;8.90;99.40;;;;;;5092541;28;20039;-67
2021/05/31 00:19:13;;;;;;;164.13;34.80;;;8.70;99.10;;;;;;5110407;28;20047;-67
2021/05/31 00:21:39;;;;;;;86.88;32.45;;;8.70;99.10;;;;;;5110510;28;20048;-67
2021/05/31 00:24:05;;;;;;;60.75;30.33;;;8.70;99.20;;;;;;5110388;28;20046;-67
2021/05/31 00:26:31;;;;;;;83.95;29.90;;;8.70;99.40;;;;;;5110443;28;20082;-67
2021/05/31 00:28:58;;;;;;;127.35;33.25;;;8.80;99.30;;;;;;5110687;28;20416;-67
2021/05/31 00:31:24;;;;;;;188.73;33.50;;;8.80;99.10;;;;;;5110331;28;20044;-67
2021/05/31 00:33:49;;;;;;;258.15;34.75;;;8.70;99.30;;;;;;5114769;28;20039;-67
2021/05/31 00:36:16;;;;;;;244.00;32.55;;;8.60;99.50;;;;;;5114169;28;20040;-67
2021/05/31 00:38:42;;;;;;;211.80;31.40;;;8.70;99.80;;;;;;5114172;28;20047;-67
2021/05/31 00:41:09;;;;;;;184.60;31.80;;;8.60;99.70;;;;;;5114236;28;20043;-67
2021/05/31 00:43:35;;;;;;;84.82;29.40;;;8.70;99.70;;;;;;5114087;28;20122;-67
2021/05/31 00:46:05;;;;;;;176.18;32.25;;;8.70;99.70;;;;;;5114163;28;20032;-67
2021/05/31 00:48:31;;;;;;;80.63;29.48;;;8.60;99.80;;;;;;5113865;28;20092;-67
2021/05/31 00:50:59;;;;;;;183.02;34.20;;;8.70;99.70;;;;;;5114021;28;20481;-67
2021/05/31 00:53:26;;;;;;;100.50;30.45;;;8.80;99.60;;;;;;5113841;28;20051;-67
2021/05/31 00:55:51;;;;;;;163.57;30.17;;;8.90;99.60;;;;;;5113977;28;20096;-67
2021/05/31 00:58:17;;;;;;;154.43;28.73;;;8.90;99.50;;;;;;5113937;28;20434;-67
2021/05/31 01:00:44;;;;;;;231.60;31.88;;;8.90;99.20;;;;;;5113712;28;20047;-67
2021/05/31 01:03:10;;;;;;;122.35;32.33;;;8.80;99.60;;;;;;5113781;28;20031;-67
2021/05/31 01:05:37;;;;;;;50.95;30.70;;;8.80;99.70;;;;;;5113657;28;20077;-67
2021/05/31 01:08:09;;;;;;;144.20;34.45;;;8.90;99.60;;;;;;5113833;28;20038;-67
2021/05/31 01:10:46;;;;;;;153.30;35.17;;;8.90;99.80;;;;;;5113417;28;20087;-67
2021/05/31 01:13:26;;;;;;;46.83;29.70;;;8.80;99.80;;;;;;5113710;28;20043;-67
2021/05/31 01:15:58;;;;;;;51.88;29.75;;;8.90;99.80;;;;;;5113420;28;20114;-67
2021/05/31 01:18:30;;;;;;;61.78;29.45;;;9.00;99.60;;;;;;5113479;28;20473;-67
2021/05/31 01:21:09;;;;;;;;;;;9.10;99.50;;;;;;5078873;28;20139;-67
2021/05/31 01:23:38;;;;;;;41.30;28.20;;;9.20;99.30;;;;;;5113401;28;19920;-67
2021/05/31 01:26:19;;;;;;;67.55;29.42;;;9.20;99.00;;;;;;5113168;28;20031;-67
2021/05/31 01:29:03;;;;;;;39.65;26.15;;;9.30;99.40;;;;;;5113310;28;20058;-67
2021/05/31 01:31:44;;;;;;;53.95;29.73;;;9.30;99.20;;;;;;5095120;28;20040;-67
2021/05/31 01:34:14;;;;;;;42.40;28.42;;;9.20;99.10;;;;;;5113152;28;20036;-67
2021/05/31 01:36:44;;;;;;;63.45;31.30;;;9.20;99.00;;;;;;5113148;28;20028;-67
2021/05/31 01:39:14;;;;;;;82.47;31.30;;;9.00;99.10;;;;;;5113066;28;20370;-67
2021/05/31 01:41:43;;;;;;;58.75;32.22;;;9.00;99.20;;;;;;5113078;28;20044;-67
2021/05/31 01:44:09;;;;;;;49.72;31.00;;;9.00;99.30;;;;;;5112757;28;20554;-66
2021/05/31 01:46:35;;;;;;;74.38;33.95;;;9.10;99.20;;;;;;5112990;28;20039;-66
2021/05/31 01:49:01;;;;;;;47.88;31.17;;;9.00;99.30;;;;;;5112879;28;20112;-66
2021/05/31 01:51:27;;;;;;;71.22;33.75;;;9.00;99.40;;;;;;5112640;28;20043;-66
2021/05/31 01:53:54;;;;;;;67.90;31.75;;;8.90;99.50;;;;;;5112824;28;20040;-66
2021/05/31 01:56:21;;;;;;;51.33;31.40;;;8.90;99.60;;;;;;5112703;28;20389;-66
2021/05/31 01:58:48;;;;;;;41.63;30.95;;;9.00;99.50;;;;;;5112691;28;20118;-66
2021/05/31 02:01:14;;;;;;;46.85;31.98;;;9.00;99.50;;;;;;5112580;28;20496;-66
2021/05/31 02:03:40;;;;;;;54.13;31.67;;;9.10;99.50;;;;;;5112580;28;20090;-66
2021/05/31 02:06:05;;;;;;;72.60;30.15;;;9.10;99.30;;;;;;5112433;28;20062;-66
2021/05/31 02:08:31;;;;;;;61.70;31.45;;;9.30;99.60;;;;;;5112552;28;20089;-66
2021/05/31 02:11:09;;;;;;;134.23;34.42;;;9.20;99.10;;;;;;5112173;28;20055;-66
2021/05/31 02:13:39;;;;;;;107.10;35.15;;;9.00;99.30;;;;;;5112500;28;20048;-66
2021/05/31 02:16:13;;;;;;;81.38;35.15;;;9.00;99.90;;;;;;5112189;28;20096;-67
2021/05/31 02:18:46;;;;;;;42.00;29.50;;;9.00;99.80;;;;;;5112363;28;20039;-67
2021/05/31 02:21:15;;;;;;;39.60;27.67;;;9.20;99.60;;;;;;5112210;28;20039;-67
2021/05/31 02:23:42;;;;;;;89.85;27.27;;;9.30;99.30;;;;;;5112111;28;20043;-67
2021/05/31 02:26:15;;;;;;;103.20;29.33;;;9.30;98.90;;;;;;5093907;28;20122;-67
2021/05/31 02:28:41;;;;;;;116.05;28.67;;;9.10;99.10;;;;;;5112320;28;20487;-67
2021/05/31 02:31:07;;;;;;;143.95;29.73;;;9.00;99.50;;;;;;5111890;28;20044;-67
2021/05/31 02:33:34;;;;;;;82.97;28.25;;;9.00;99.60;;;;;;5093824;28;20042;-67
2021/05/31 02:36:01;;;;;;;72.28;30.80;;;9.00;99.90;;;;;;5112176;28;20036;-67
2021/05/31 02:38:27;;;;;;;39.58;29.73;;;9.10;99.80;;;;;;5112359;28;20062;-67
2021/05/31 02:40:53;;;;;;;49.65;29.70;;;9.10;99.70;;;;;;5111760;28;20104;-67
2021/05/31 02:43:19;;;;;;;48.75;30.27;;;9.20;99.70;;;;;;5111802;28;20379;-67
2021/05/31 02:45:44;;;;;;;63.28;31.30;;;9.30;99.50;;;;;;5093481;28;20043;-67
2021/05/31 02:48:10;;;;;;;70.57;31.60;;;9.30;99.30;;;;;;5093537;28;20110;-66
2021/05/31 02:50:36;;;;;;;64.63;30.80;;;9.40;99.40;;;;;;5111554;28;20443;-66
2021/05/31 02:53:02;;;;;;;72.28;30.85;;;9.40;99.40;;;;;;5111670;28;20044;-67
2021/05/31 02:55:29;;;;;;;53.97;30.88;;;9.40;99.40;;;;;;5092581;28;20438;-67
2021/05/31 02:57:56;;;;;;;46.15;29.80;;;9.50;99.20;;;;;;5093426;28;20059;-67
2021/05/31 03:00:23;;;;;;;84.47;25.80;;;9.50;99.20;;;;;;5111506;28;20046;-67
2021/05/31 03:02:49;;;;;;;71.65;26.48;;;9.60;99.10;;;;;;5093358;28;20389;-66
2021/05/31 03:05:20;;;;;;;71.05;27.77;;;9.60;98.90;;;;;;5111796;28;20040;-67
2021/05/31 03:07:47;;;;;;;39.28;24.60;;;9.70;98.80;;;;;;5111226;28;20441;-67
2021/05/31 03:10:14;;;;;;;67.70;26.08;;;9.80;98.80;;;;;;5077626;28;20415;-67
2021/05/31 03:12:41;;;;;;;45.28;27.27;;;9.80;98.60;;;;;;5069377;28;20111;-67
2021/05/31 03:15:10;;;;;;;78.30;25.75;;;9.80;98.60;;;;;;5070737;28;20490;-67
2021/05/31 03:17:36;;;;;;;57.22;27.52;;;9.90;98.50;;;;;;5070572;28;20036;-67
2021/05/31 03:20:05;;;;;;;47.72;26.95;;;9.90;98.40;;;;;;5070663;28;20177;-67
2021/05/31 03:22:31;;;;;;;68.63;27.83;;;9.90;98.40;;;;;;5070558;28;20041;-67
2021/05/31 03:24:57;;;;;;;84.82;27.75;;;9.90;98.20;;;;;;5070528;28;20394;-66
2021/05/31 03:27:22;;;;;;;83.18;28.05;;;9.80;98.70;;;;;;5070342;28;20045;-67
2021/05/31 03:29:48;;;;;;;73.95;27.80;;;9.80;98.80;;;;;;5069063;28;20439;-67
2021/05/31 03:32:14;;;;;;;86.22;28.80;;;9.80;98.60;;;;;;5068860;28;20032;-67
2021/05/31 03:34:40;;;;;;;108.97;27.77;;;9.90;98.60;;;;;;5070236;28;20048;-66
2021/05/31 03:37:05;;;;;;;93.63;28.83;;;9.90;98.80;;;;;;5069966;28;20051;-67
2021/05/31 03:39:31;;;;;;;96.35;29.52;;;9.90;98.90;;;;;;5070518;28;20040;-67
2021/05/31 03:41:57;;;;;;;76.25;28.27;;;9.90;99.00;;;;;;5069878;28;20040;-66
2021/05/31 03:44:22;;;;;;;91.18;28.33;;;9.90;98.80;;;;;;5069852;28;20044;-67
2021/05/31 03:46:48;;;;;;;45.97;27.20;;;10.00;99.30;;;;;;5068761;28;20059;-67
2021/05/31 03:49:14;;;;;;;57.17;27.10;;;10.00;98.90;;;;;;5070301;28;20047;-67
2021/05/31 03:51:40;;;;;;;71.60;25.85;;;10.10;98.70;;;;;;5070009;28;20040;-66
2021/05/31 03:54:05;;;;;;;52.03;23.90;;;10.10;98.20;;;;;;5070208;28;20490;-66
2021/05/31 03:56:31;;;;;;;58.40;25.70;;;10.20;98.10;;;;;;5068861;28;20045;-66
2021/05/31 03:58:57;;;;;;;38.78;25.73;;;10.10;98.30;;;;;;5070126;28;20068;-66
2021/05/31 04:01:22;;;;;;;72.03;23.58;;;10.10;98.60;;;;;;5070094;28;20068;-67
2021/05/31 04:03:48;;;;;;;72.40;25.55;;;10.20;98.10;;;;;;5068692;28;20041;-67
2021/05/31 04:11:45;;;;;;;62.58;25.90;;;10.20;98.10;;;;;;5114616;28;20044;-67
2021/05/31 04:14:13;;;;;;;73.25;25.48;;;10.10;98.80;;;;;;5114716;28;20043;-67
2021/05/31 04:16:42;;;;;;;90.53;25.65;;;10.10;98.90;;;;;;5096402;28;20044;-67
2021/05/31 04:19:09;;;;;;;88.45;25.63;;;10.20;98.20;;;;;;5096506;28;20366;-66
2021/05/31 04:21:36;;;;;;;58.78;25.92;;;10.20;98.00;;;;;;5096483;28;20067;-67
2021/05/31 04:24:02;;;;;;;66.68;25.08;;;10.20;98.00;;;;;;5114462;28;20032;-67
2021/05/31 04:26:30;;;;;;;81.00;28.58;;;10.30;97.80;;;;;;5114513;28;20114;-66
2021/05/31 04:28:56;;;;;;;47.38;28.13;;;10.30;98.50;;;;;;5114384;28;20040;-67
2021/05/31 04:31:23;;;;;;;60.60;28.13;;;10.30;98.40;;;;;;5095963;28;20114;-67
2021/05/31 04:33:48;;;;;;;64.57;28.48;;;10.30;98.80;;;;;;5114314;28;20036;-67
2021/05/31 04:36:23;;;;;;;93.47;28.85;;;10.30;98.80;;;;;;5114279;28;20134;-66
2021/05/31 04:38:48;;;;;;;112.75;30.08;;;10.30;98.90;;;;;;5114144;28;20134;-65
2021/05/31 04:41:14;;;;;;;79.65;30.10;;;10.30;98.80;;;;;;5114301;28;20048;-65
2021/05/31 04:43:40;;;;;;;43.08;25.80;;;10.30;98.50;;;;;;5114064;28;20046;-66
2021/05/31 04:46:05;;;;;;;71.57;27.27;;;10.40;98.10;;;;;;5114101;28;20114;-67
2021/05/31 04:48:32;;;;;;;104.18;30.83;;;10.50;97.60;;;;;;5114111;28;20469;-67
2021/05/31 04:50:58;;;;;;;79.20;27.00;;;10.30;98.60;;;;;;5113944;28;20127;-66
2021/05/31 04:53:29;;;;;;;83.82;27.30;;;10.20;98.70;;;;;;5114231;28;20043;-67
2021/05/31 04:55:56;;;;;;;83.10;27.60;;;10.10;99.00;;;;;;5113895;28;20424;-66
2021/05/31 04:58:23;;;;;;;96.57;28.23;;;10.10;99.20;;;;;;5113723;28;20114;-66
2021/05/31 05:00:50;;;;;;;73.55;26.10;;;10.00;99.40;;;;;;5095565;28;20047;-66
2021/05/31 05:03:17;;;;;;;49.55;27.05;;;10.00;99.70;;;;;;5113672;28;20363;-67
2021/05/31 05:05:43;;;;;;;47.47;24.80;;;10.10;99.20;;;;;;5095500;28;20114;-67
2021/05/31 05:08:09;;;;;;;42.38;24.13;;;10.20;98.60;;;;;;5095350;28;20097;-67
2021/05/31 05:10:35;;;;;;;46.65;27.35;;;10.30;98.40;;;;;;5113428;28;20051;-66
2021/05/31 05:13:01;;;;;;;66.15;27.52;;;10.40;98.10;;;;;;5113473;28;20477;-67
2021/05/31 05:15:27;;;;;;;72.60;28.50;;;10.50;98.20;;;;;;5113575;28;20447;-66
2021/05/31 05:17:54;;;;;;;61.17;26.85;;;10.60;98.20;;;;;;5112962;28;20040;-67
2021/05/31 05:20:22;;;;;;;42.60;26.40;;;10.60;97.80;;;;;;5113457;28;20116;-67
2021/05/31 05:22:48;;;;;;;85.07;26.27;;;10.60;97.70;;;;;;5113512;28;20397;-67
2021/05/31 05:25:14;;;;;;;56.95;22.73;;;10.50;98.60;;;;;;5113217;28;20032;-66
2021/05/31 05:27:42;;;;;;;38.60;21.88;;;10.60;98.50;;;;;;5095092;28;20071;-66
2021/05/31 05:30:09;;;;;;;38.45;21.67;;;10.70;97.60;;;;;;5113066;28;20173;-67
2021/05/31 05:32:36;;;;;;;55.40;22.50;;;10.70;97.40;;;;;;5113284;28;20061;-67
2021/05/31 05:41:04;;;;;;;77.47;21.63;;;10.90;97.80;;;;;;5113151;28;20044;-67
2021/05/31 05:48:42;;;;;;;43.78;22.60;;;10.80;98.10;;;;;;5112824;28;20044;-67
2021/05/31 05:51:08;;;;;;;45.67;20.77;;;11.00;97.70;;;;;;5113038;28;20032;-67
2021/05/31 05:53:36;;;;;;;80.40;23.02;;;11.10;96.90;;;;;;5094605;28;20256;-67
2021/05/31 05:56:05;;;;;;;64.93;22.10;;;11.10;97.50;;;;;;5112803;28;20434;-67
2021/05/31 05:58:31;;;;;;;50.72;23.77;;;11.10;98.20;;;;;;5112767;28;20066;-67
2021/05/31 06:00:59;;;;;;;51.58;23.10;;;11.10;98.20;;;;;;5094334;28;20067;-67
2021/05/31 06:03:25;;;;;;;51.88;20.38;;;11.20;97.90;;;;;;5112846;28;20035;-67
2021/05/31 06:05:53;;;;;;;41.75;20.65;;;11.40;95.80;;;;;;5112698;28;20035;-67
2021/05/31 06:08:19;;;;;;;47.60;19.67;;;11.50;96.00;;;;;;5112410;28;20032;-67
2021/05/31 06:10:44;;;;;;;29.88;19.17;;;11.60;95.90;;;;;;5112180;28;20489;-67
2021/05/31 06:13:10;;;;;;;56.22;21.00;;;11.50;95.90;;;;;;5112538;28;20042;-67
2021/05/31 06:15:36;;;;;;;59.08;20.27;;;11.50;97.50;;;;;;5094003;28;20040;-67
2021/05/31 06:18:03;;;;;;;68.78;20.92;;;11.40;97.60;;;;;;5094047;28;20115;-67
2021/05/31 06:20:29;;;;;;;36.55;19.58;;;11.20;98.00;;;;;;5112114;28;20081;-67
2021/05/31 06:22:54;;;;;;;39.15;21.02;;;11.40;97.10;;;;;;5112237;28;20035;-67
2021/05/31 06:25:21;;;;;;;47.60;19.70;;;11.50;96.70;;;;;;5093802;28;20396;-68
2021/05/31 06:27:47;;;;;;;40.40;19.45;;;11.70;96.10;;;;;;5112145;28;20035;-68
2021/05/31 06:30:14;;;;;;;38.72;19.58;;;11.80;95.30;;;;;;5110938;28;20448;-67
2021/05/31 06:32:40;;;;;;;37.22;20.80;;;11.90;95.20;;;;;;5093811;28;20117;-67
2021/05/31 06:35:06;;;;;;;34.88;19.80;;;11.90;95.90;;;;;;5093811;28;20028;-67
2021/05/31 06:37:37;;;;;;;33.15;21.25;;;12.00;95.90;;;;;;5112178;28;20039;-67
2021/05/31 06:40:24;;;;;;;29.40;20.30;;;12.10;95.40;;;;;;5082690;28;20086;-66
2021/05/31 06:42:53;;;;;;;32.83;20.48;;;12.30;95.30;;;;;;5111681;28;20052;-66
2021/05/31 06:45:24;;;;;;;31.23;19.92;;;12.20;96.50;;;;;;5093492;28;20418;-66
2021/05/31 06:47:53;;;;;;;28.23;19.25;;;12.40;95.10;;;;;;5111739;28;20097;-66
2021/05/31 06:50:20;;;;;;;21.80;17.65;;;12.50;95.00;;;;;;5111582;28;20035;-66
2021/05/31 06:52:47;;;;;;;29.40;19.10;;;12.60;94.50;;;;;;5111637;28;20036;-66
2021/05/31 06:55:13;;;;;;;25.75;18.77;;;12.60;94.90;;;;;;5111382;28;20063;-66
2021/05/31 06:57:40;;;;;;;26.70;18.77;;;12.80;93.70;;;;;;5111576;28;20035;-66
2021/05/31 07:00:09;;;;;;;23.77;19.33;;;12.80;94.40;;;;;;5093112;28;20036;-66
2021/05/31 07:02:35;;;;;;;22.30;17.40;;;13.00;94.20;;;;;;5111557;28;20110;-66
2021/05/31 07:05:01;;;;;;;28.17;19.23;;;13.20;92.10;;;;;;5111332;28;20123;-66
2021/05/31 07:07:27;;;;;;;27.10;20.60;;;13.20;92.30;;;;;;5093149;28;20503;-66
2021/05/31 07:09:52;;;;;;;31.58;21.88;;;13.30;93.60;;;;;;5092953;28;20055;-66
2021/05/31 07:12:18;;;;;;;27.20;21.17;;;13.30;93.40;;;;;;5111146;28;20040;-66
2021/05/31 07:14:46;;;;;;;33.05;22.25;;;13.40;94.10;;;;;;5111441;28;20123;-66
2021/05/31 07:17:12;;;;;;;29.75;21.63;;;13.30;94.60;;;;;;5092889;28;20088;-67
2021/05/31 07:19:44;;;;;;;34.03;21.98;;;13.30;94.50;;;;;;5111167;28;20097;-66
2021/05/31 07:22:13;;;;;;;27.98;21.75;;;13.20;94.90;;;;;;5111105;28;20043;-67
2021/05/31 07:24:39;;;;;;;28.95;22.00;;;13.40;94.20;;;;;;5111047;28;20050;-66
2021/05/31 07:27:05;;;;;;;24.00;19.10;;;13.20;95.10;;;;;;5111245;28;20118;-66
2021/05/31 07:29:32;;;;;;;26.05;20.48;;;13.50;93.20;;;;;;5092739;28;20431;-66
2021/05/31 07:31:57;;;;;;;26.05;19.38;;;13.60;92.40;;;;;;5110861;28;20048;-66
2021/05/31 07:34:23;;;;;;;23.50;19.90;;;13.70;93.20;;;;;;5110984;28;20043;-66
2021/05/31 07:36:49;;;;;;;24.98;19.25;;;13.50;94.10;;;;;;5110758;28;20374;-66
2021/05/31 07:39:14;;;;;;;25.23;20.42;;;13.40;94.10;;;;;;5110867;28;20069;-66
2021/05/31 07:41:41;;;;;;;26.35;20.02;;;13.50;94.10;;;;;;5110514;28;20051;-66
2021/05/31 07:44:24;;;;;;;24.95;20.00;;;13.70;94.10;;;;;;5110918;28;20038;-66
2021/05/31 07:46:50;;;;;;;23.92;20.25;;;13.60;94.10;;;;;;5092458;28;20043;-66
2021/05/31 07:49:16;;;;;;;24.98;19.20;;;13.80;94.00;;;;;;5110778;28;20396;-69
2021/05/31 07:51:44;;;;;;;23.35;19.15;;;14.00;93.50;;;;;;5110428;28;20043;-66
2021/05/31 07:54:10;;;;;;;22.58;19.35;;;14.30;91.30;;;;;;5111128;28;20469;-66
2021/05/31 07:56:36;;;;;;;21.60;19.30;;;14.40;91.30;;;;;;5092328;28;20314;-66
2021/05/31 07:59:03;;;;;;;21.70;19.40;;;14.40;91.70;;;;;;5110601;28;20031;-66
2021/05/31 08:01:29;;;;;;;22.27;18.70;;;14.20;92.10;;;;;;5110550;28;20039;-66
2021/05/31 08:03:55;;;;;;;19.88;17.73;;;14.60;91.00;;;;;;5111059;28;20085;-67
2021/05/31 08:06:20;;;;;;;19.52;17.40;;;14.60;91.30;;;;;;5110564;28;20040;-67
2021/05/31 08:08:46;;;;;;;19.95;17.67;;;14.70;91.60;;;;;;5110385;28;20046;-67
2021/05/31 08:11:12;;;;;;;20.25;17.95;;;15.00;90.00;;;;;;5110219;28;20122;-67
2021/05/31 08:13:38;;;;;;;20.42;18.27;;;15.10;90.10;;;;;;5110491;28;20089;-66
2021/05/31 08:16:05;;;;;;;20.40;18.20;;;15.40;88.50;;;;;;5110431;28;20092;-67
2021/05/31 08:18:31;;;;;;;19.58;17.23;;;15.00;90.30;;;;;;5110533;28;20043;-67
2021/05/31 08:20:57;;;;;;;20.25;18.17;;;15.20;89.40;;;;;;5110429;28;20043;-66
2021/05/31 08:25:54;;;;;;;21.05;18.92;;;15.60;88.70;;;;;;5068506;28;20048;-68
2021/05/31 08:28:20;;;;;;;20.90;18.17;;;15.80;87.30;;;;;;5070200;28;20525;-67
2021/05/31 08:30:46;;;;;;;20.65;18.58;;;15.90;85.50;;;;;;5069754;28;20210;-66
2021/05/31 08:33:11;;;;;;;22.63;20.25;;;16.10;85.10;;;;;;5069684;28;20352;-67
2021/05/31 08:35:39;;;;;;;20.70;18.60;;;16.10;86.40;;;;;;5070045;28;20064;-66
2021/05/31 08:38:05;;;;;;;19.92;17.88;;;16.30;85.90;;;;;;5069858;28;20060;-66
2021/05/31 08:40:31;;;;;;;22.60;20.17;;;16.50;83.30;;;;;;5051802;28;20122;-66
2021/05/31 08:42:57;;;;;;;21.08;18.98;;;16.70;86.00;;;;;;5069606;28;20047;-66
2021/05/31 08:45:25;;;;;;;20.02;17.88;;;17.10;83.50;;;;;;5069709;28;20037;-66
2021/05/31 08:47:52;;;;;;;19.70;17.65;;;17.40;80.80;;;;;;5069544;28;20090;-67
2021/05/31 08:50:21;;;;;;;21.30;19.10;;;17.50;80.60;;;;;;5069546;28;20037;-66
2021/05/31 08:52:48;;;;;;;23.65;19.88;;;17.60;78.80;;;;;;5070245;28;20051;-66
2021/05/31 08:55:16;;;;;;;22.33;20.23;;;17.50;79.50;;;;;;5073237;28;20115;-67
2021/05/31 08:57:42;;;;;;;22.88;20.20;;;17.40;81.60;;;;;;5073331;28;20045;-67
2021/05/31 09:00:11;;;;;;;21.55;19.55;;;17.30;80.80;;;;;;5055462;28;20041;-67
2021/05/31 09:02:38;;;;;;;21.35;19.25;;;17.30;83.60;;;;;;5073290;28;20036;-67
2021/05/31 09:05:06;;;;;;;22.95;20.40;;;17.40;80.80;;;;;;5055437;28;20064;-67
2021/05/31 09:07:31;;;;;;;22.38;20.17;;;17.20;83.30;;;;;;5072945;28;20378;-67
2021/05/31 09:09:57;;;;;;;20.85;18.65;;;16.70;84.80;;;;;;5073113;28;20040;-68
2021/05/31 09:12:28;;;;;;;21.35;19.05;;;16.90;83.20;;;;;;5073002;28;20039;-67
2021/05/31 09:14:56;;;;;;;21.27;19.20;;;17.10;80.60;;;;;;5073200;28;20449;-67
2021/05/31 09:17:30;;;;;;;23.02;20.65;;;17.00;82.60;;;;;;5073037;28;20398;-67
2021/05/31 09:19:56;;;;;;;22.05;19.85;;;17.20;83.70;;;;;;5055350;28;20064;-67
2021/05/31 09:22:23;;;;;;;22.10;19.90;;;17.30;80.30;;;;;;5072800;28;20043;-67
2021/05/31 09:24:59;;;;;;;22.95;20.58;;;17.50;79.00;;;;;;5051371;28;20060;-67
2021/05/31 09:27:26;;;;;;;22.13;20.00;;;17.50;80.60;;;;;;5052574;28;20041;-66
2021/05/31 09:30:00;;;;;;;20.48;18.42;;;17.50;82.10;;;;;;5052835;28;20037;-67
2021/05/31 09:32:27;;;;;;;24.25;21.75;;;17.80;78.70;;;;;;5052557;28;20484;-67
2021/05/31 09:35:05;;;;;;;21.30;19.15;;;17.60;83.00;;;;;;5052565;28;20123;-67
2021/05/31 09:37:32;;;;;;;22.33;20.02;;;18.00;79.30;;;;;;5052411;28;20041;-66
2021/05/31 09:40:03;;;;;;;23.85;21.48;;;17.90;82.50;;;;;;5052549;28;20064;-66
2021/05/31 09:42:30;;;;;;;23.17;20.73;;;17.80;83.20;;;;;;5051131;28;20391;-66
2021/05/31 09:45:03;;;;;;;21.50;19.40;;;17.70;82.80;;;;;;5052509;28;20041;-66
2021/05/31 09:47:32;;;;;;;20.38;18.20;;;17.70;81.90;;;;;;5052349;28;20421;-66
2021/05/31 09:49:58;;;;;;;17.77;15.55;;;17.90;80.50;;;;;;5052364;28;20036;-67
2021/05/31 09:52:24;;;;;;;18.65;16.77;;;18.00;79.40;;;;;;5052162;28;20044;-66
2021/05/31 09:54:52;;;;;;;17.05;15.43;;;18.30;77.50;;;;;;5052144;28;20041;-67
2021/05/31 09:57:26;;;;;;;19.95;17.95;;;18.50;77.20;;;;;;5052181;28;20041;-67
2021/05/31 09:59:56;;;;;;;19.38;17.40;;;18.50;79.90;;;;;;5052075;28;20565;-67
2021/05/31 10:08:17;;;;;;;17.30;15.48;;;18.60;75.60;;;;;;5051976;28;20073;-66
2021/05/31 10:10:44;;;;;;;16.08;14.48;;;18.70;75.50;;;;;;5051829;28;20518;-67
2021/05/31 10:13:10;;;;;;;16.23;14.60;;;18.90;76.40;;;;;;5051706;28;20033;-66
2021/05/31 10:15:41;;;;;;;17.40;15.60;;;18.80;74.40;;;;;;5051895;28;20095;-66
2021/05/31 10:18:12;;;;;;;16.45;14.70;;;19.00;73.30;;;;;;5051766;28;20040;-66
2021/05/31 10:20:38;;;;;;;16.15;14.55;;;19.20;75.30;;;;;;5051755;28;20072;-67
2021/05/31 10:23:06;;;;;;;14.98;13.57;;;19.40;72.40;;;;;;5051655;28;20115;-66
2021/05/31 10:25:34;;;;;;;13.98;12.57;;;19.40;73.30;;;;;;5050054;28;20049;-67
2021/05/31 10:28:14;;;;;;;13.55;12.02;;;19.30;72.70;;;;;;5051583;28;20045;-69
2021/05/31 10:30:45;;;;;;;15.60;13.85;;;19.60;71.10;;;;;;5051438;28;20043;-67
2021/05/31 10:33:22;;;;;;;16.67;14.75;;;19.50;70.50;;;;;;5051477;28;20048;-67
2021/05/31 10:35:49;;;;;;;12.05;10.85;;;19.40;69.60;;;;;;5051569;28;20502;-67
2021/05/31 10:38:21;;;;;;;12.55;11.25;;;19.40;71.00;;;;;;5051484;28;20057;-68
2021/05/31 10:40:50;;;;;;;11.13;10.13;;;19.40;71.30;;;;;;5051673;28;20048;-67
2021/05/31 10:43:19;;;;;;;12.18;10.88;;;19.80;69.90;;;;;;5051297;28;20474;-67
2021/05/31 10:45:47;;;;;;;9.43;8.43;;;20.00;68.50;;;;;;5051230;28;20041;-67
2021/05/31 10:48:15;;;;;;;10.68;9.40;;;20.20;67.80;;;;;;5051269;28;20049;-68
2021/05/31 10:50:50;;;;;;;9.30;8.20;;;20.40;66.40;;;;;;5050970;28;20094;-67
2021/05/31 10:55:54;;;;;;;8.85;8.05;;;20.60;62.80;;;;;;5050961;28;20063;-68
2021/05/31 10:58:22;;;;;;;12.00;10.80;;;20.60;62.80;;;;;;5050922;28;20047;-68
2021/05/31 11:01:03;;;;;;;11.15;8.77;;;20.80;64.40;;;;;;5049507;28;20479;-68
2021/05/31 11:03:30;;;;;;;8.82;7.93;;;20.90;65.30;;;;;;5051219;28;20052;-68
2021/05/31 11:05:57;;;;;;;8.98;8.05;;;20.90;61.70;;;;;;5050735;28;20540;-67
2021/05/31 11:08:25;;;;;;;10.98;9.23;;;21.10;63.60;;;;;;5051065;28;20556;-67
2021/05/31 11:10:56;;;;;;;9.73;8.73;;;21.20;62.80;;;;;;5049355;28;20090;-67
2021/05/31 11:13:22;;;;;;;9.63;8.73;;;21.20;60.30;;;;;;5050747;28;20274;-67
2021/05/31 11:16:00;;;;;;;10.65;8.40;;;21.20;61.20;;;;;;5048765;28;20060;-67
2021/05/31 11:18:32;;;;;;;10.80;9.70;;;21.20;62.30;;;;;;5050624;28;20087;-68
2021/05/31 11:21:00;;;;;;;10.02;9.10;;;21.30;61.50;;;;;;5050453;28;20406;-67
2021/05/31 11:23:26;;;;;;;11.85;9.13;;;21.30;61.70;;;;;;5050552;28;20044;-67
2021/05/31 11:25:52;;;;;;;9.98;8.95;;;21.50;60.80;;;;;;5070092;28;20063;-67
2021/05/31 11:28:22;;;;;;;10.15;9.15;;;21.60;59.80;;;;;;5070489;28;20036;-67
2021/05/31 11:30:48;;;;;;;9.57;8.57;;;21.50;59.50;;;;;;5070298;28;20063;-67
2021/05/31 11:33:15;;;;;;;10.50;8.98;;;21.50;62.40;;;;;;5052510;28;20062;-68
2021/05/31 11:35:44;;;;;;;9.88;8.65;;;21.50;59.50;;;;;;5052499;28;20489;-67
2021/05/31 11:38:10;;;;;;;10.13;8.90;;;21.60;58.60;;;;;;5070483;28;20701;-69
2021/05/31 11:40:42;;;;;;;10.45;8.55;;;21.50;58.50;;;;;;5070311;28;20037;-69
2021/05/31 11:43:14;;;;;;;10.98;8.55;;;21.80;62.00;;;;;;5070487;28;20111;-69
2021/05/31 11:45:41;;;;;;;8.95;7.65;;;22.00;58.90;;;;;;5070287;28;20094;-69
2021/05/31 11:48:13;;;;;;;10.05;9.00;;;22.00;58.90;;;;;;5070243;28;20546;-69
2021/05/31 11:50:40;;;;;;;9.02;7.53;;;22.00;54.10;;;;;;5070019;28;20120;-69
2021/05/31 11:53:12;;;;;;;9.65;8.75;;;22.00;57.60;;;;;;5070157;28;20123;-69
2021/05/31 11:55:38;;;;;;;7.38;6.55;;;22.00;55.50;;;;;;5052185;28;20386;-69
2021/05/31 11:58:04;;;;;;;7.93;6.68;;;22.10;55.40;;;;;;5070060;28;20036;-69
2021/05/31 12:00:40;;;;;;;9.35;7.30;;;22.30;59.20;;;;;;5070041;28;20603;-69
2021/05/31 12:03:18;;;;;;;8.82;7.93;;;22.40;58.60;;;;;;5070350;28;20051;-69
2021/05/31 12:05:43;;;;;;;7.20;6.28;;;22.30;53.40;;;;;;5069984;28;20040;-69
2021/05/31 12:08:14;;;;;;;7.05;6.32;;;22.40;56.10;;;;;;5070153;28;20044;-69
2021/05/31 12:10:45;;;;;;;7.68;6.50;;;22.60;54.80;;;;;;5069991;28;20474;-69
2021/05/31 12:13:13;;;;;;;6.75;5.80;;;22.50;50.90;;;;;;5070243;28;20052;-69
2021/05/31 12:15:40;;;;;;;7.40;5.82;;;22.40;51.50;;;;;;5069931;28;20075;-69
2021/05/31 12:18:11;;;;;;;6.65;6.05;;;22.60;56.50;;;;;;5069975;28;20230;-69
2021/05/31 12:20:37;;;;;;;7.30;6.18;;;22.50;55.60;;;;;;5051955;28;20047;-69
2021/05/31 12:23:12;;;;;;;7.18;6.18;;;22.70;57.00;;;;;;5069992;28;20044;-69
2021/05/31 12:25:38;;;;;;;6.68;5.22;;;22.60;51.70;;;;;;5069726;28;20088;-69
2021/05/31 12:28:04;;;;;;;7.05;6.13;;;22.70;54.00;;;;;;5053141;28;20516;-69
2021/05/31 12:30:30;;;;;;;6.90;5.88;;;22.50;50.90;;;;;;5055699;28;20043;-69
2021/05/31 12:32:56;;;;;;;5.40;4.90;;;22.70;56.10;;;;;;5073750;28;20119;-69
2021/05/31 12:35:21;;;;;;;7.80;6.18;;;23.00;57.30;;;;;;5073808;28;20074;-69
2021/05/31 12:37:52;;;;;;;8.77;6.43;;;23.00;51.60;;;;;;5073951;28;20464;-69
2021/05/31 12:40:20;;;;;;;6.93;6.22;;;23.10;54.40;;;;;;5073712;28;20037;-69
2021/05/31 12:42:49;;;;;;;6.55;5.95;;;23.10;55.30;;;;;;5073503;28;20044;-69
2021/05/31 12:45:18;;;;;;;8.07;5.60;;;23.00;48.90;;;;;;5073408;28;20051;-69
2021/05/31 12:47:46;;;;;;;7.13;5.93;;;23.30;53.60;;;;;;5055403;28;20032;-69
2021/05/31 12:50:26;;;;;;;7.03;5.85;;;23.30;53.80;;;;;;5073384;28;20037;-69
2021/05/31 12:52:52;;;;;;;7.72;6.60;;;23.50;56.20;;;;;;5073588;28;20048;-69
2021/05/31 12:55:30;;;;;;;8.07;7.20;;;23.30;51.10;;;;;;5073368;28;20044;-70
2021/05/31 12:57:56;;;;;;;8.88;6.20;;;23.30;50.10;;;;;;5073464;28;20040;-70
2021/05/31 13:00:27;;;;;;;7.30;6.55;;;23.20;51.00;;;;;;5073207;28;20119;-70
2021/05/31 13:02:54;;;;;;;7.63;6.80;;;23.20;50.90;;;;;;5073122;28;20482;-70
2021/05/31 13:05:23;;;;;;;6.97;5.85;;;23.40;50.40;;;;;;5073088;28;20033;-69